createdAt,value
2022-11-09T00:03:59.985Z,6.80
2022-11-09T00:09:07.773Z,6.76
2022-11-09T00:14:11.430Z,6.71
2022-11-09T00:19:14.649Z,6.62
2022-11-09T00:24:17.866Z,6.51
2022-11-09T00:29:21.007Z,6.56
2022-11-09T00:34:24.991Z,6.56
2022-11-09T00:39:28.139Z,6.62
2022-11-09T00:44:31.280Z,6.64
2022-11-09T00:49:34.558Z,6.68
2022-11-09T00:54:41.863Z,6.63
2022-11-09T00:59:45.035Z,6.61
2022-11-09T01:04:48.173Z,6.58
2022-11-09T01:09:51.874Z,6.54
2022-11-09T01:14:55.478Z,6.57
2022-11-09T01:19:58.922Z,6.58
2022-11-09T01:25:02.105Z,6.57
2022-11-09T01:30:05.249Z,6.44
2022-11-09T01:35:08.472Z,6.41
2022-11-09T01:40:11.759Z,6.29
2022-11-09T01:45:14.882Z,6.26
2022-11-09T01:50:18.491Z,6.14
2022-11-09T01:55:21.848Z,6.03
2022-11-09T02:00:24.956Z,6.00
2022-11-09T02:05:28.148Z,6.01
2022-11-09T02:10:31.250Z,5.79
2022-11-09T02:15:35.413Z,5.77
2022-11-09T02:20:38.500Z,5.77
2022-11-09T02:25:41.652Z,5.75
2022-11-09T02:30:45.104Z,5.70
2022-11-09T02:35:48.385Z,5.67
2022-11-09T02:40:51.594Z,5.64
2022-11-09T02:45:55.241Z,5.59
2022-11-09T02:50:58.477Z,5.58
2022-11-09T02:56:02.566Z,5.55
2022-11-09T03:01:06.876Z,5.56
2022-11-09T03:06:10.081Z,5.55
2022-11-09T03:11:13.207Z,5.50
2022-11-09T03:16:16.388Z,5.50
2022-11-09T03:21:23.025Z,5.48
2022-11-09T03:26:26.395Z,5.48
2022-11-09T03:31:29.522Z,5.46
2022-11-09T03:36:32.678Z,5.53
2022-11-09T03:41:36.360Z,5.51
2022-11-09T03:46:46.427Z,5.55
2022-11-09T03:51:50.925Z,5.60
2022-11-09T03:56:54.069Z,5.58
2022-11-09T04:01:57.244Z,5.67
2022-11-09T04:07:00.402Z,5.80
2022-11-09T04:12:03.572Z,5.84
2022-11-09T04:17:06.788Z,5.88
2022-11-09T04:22:10.364Z,5.91
2022-11-09T04:27:13.563Z,5.90
2022-11-09T04:32:16.780Z,5.99
2022-11-09T04:37:19.891Z,6.09
2022-11-09T04:42:23.050Z,6.14
2022-11-09T04:47:26.265Z,6.26
2022-11-09T04:52:29.389Z,6.31
2022-11-09T04:57:33.060Z,6.37
2022-11-09T05:02:36.690Z,6.39
2022-11-09T05:07:39.868Z,6.47
2022-11-09T05:12:45.985Z,6.43
2022-11-09T05:17:49.331Z,6.57
2022-11-09T05:23:11.521Z,6.57
2022-11-09T05:28:15.330Z,6.65
2022-11-09T05:33:18.861Z,6.82
2022-11-09T05:38:22.385Z,6.85
2022-11-09T05:43:25.691Z,7.03
2022-11-09T05:48:28.859Z,7.03
2022-11-09T05:53:31.986Z,6.94
2022-11-09T05:58:36.493Z,7.03
2022-11-09T06:03:40.577Z,7.06
2022-11-09T06:08:43.871Z,7.02
2022-11-09T06:13:47.228Z,6.93
2022-11-09T06:18:50.338Z,6.88
2022-11-09T06:23:54.407Z,6.91
2022-11-09T06:28:57.544Z,7.13
2022-11-09T06:34:00.307Z,7.23
2022-11-09T06:39:03.133Z,7.30
2022-11-09T06:44:06.424Z,7.61
2022-11-09T06:49:09.308Z,7.82
2022-11-09T06:54:12.008Z,7.94
2022-11-09T06:59:14.729Z,8.00
2022-11-09T07:04:17.630Z,7.92
2022-11-09T07:09:20.226Z,7.92
2022-11-09T07:14:23.118Z,7.84
2022-11-09T07:19:25.785Z,7.73
2022-11-09T07:24:28.377Z,7.77
2022-11-09T07:29:31.521Z,7.84
2022-11-09T07:34:34.609Z,7.93
2022-11-09T07:39:37.196Z,8.03
2022-11-09T07:44:39.816Z,8.20
2022-11-09T07:49:42.594Z,8.30
2022-11-09T07:54:49.539Z,8.44
2022-11-09T07:59:54.836Z,8.57
2022-11-09T08:04:57.530Z,8.70
2022-11-09T08:10:00.243Z,8.90
2022-11-09T08:15:03.030Z,9.14
2022-11-09T08:20:05.720Z,9.53
2022-11-09T08:25:08.461Z,10.16
2022-11-09T08:30:12.416Z,10.58
2022-11-09T08:35:17.838Z,10.97
2022-11-09T08:40:21.289Z,11.51
2022-11-09T08:45:23.952Z,11.80
2022-11-09T08:50:27.154Z,12.22
2022-11-09T08:55:30.343Z,12.38
2022-11-09T09:00:33.032Z,12.44
2022-11-09T09:05:35.661Z,12.53
2022-11-09T09:10:38.724Z,12.74
2022-11-09T09:15:41.386Z,12.81
2022-11-09T09:20:44.038Z,13.06
2022-11-09T09:25:46.830Z,13.13
2022-11-09T09:30:49.553Z,13.24
2022-11-09T09:35:52.292Z,13.65
2022-11-09T09:40:55.670Z,14.03
2022-11-09T09:45:58.295Z,14.24
2022-11-09T09:51:01.012Z,14.29
2022-11-09T09:56:04.189Z,14.39
2022-11-09T10:01:07.491Z,14.12
2022-11-09T10:06:10.686Z,14.34
2022-11-09T10:11:13.823Z,14.56
2022-11-09T10:16:17.116Z,15.04
2022-11-09T10:21:20.383Z,15.16
2022-11-09T10:26:23.991Z,15.37
2022-11-09T10:31:27.540Z,15.30
2022-11-09T10:36:31.382Z,15.46
2022-11-09T10:41:34.468Z,15.19
2022-11-09T10:46:37.680Z,15.03
2022-11-09T10:51:40.950Z,15.17
2022-11-09T10:57:05.073Z,14.92
2022-11-09T11:02:07.662Z,15.04
2022-11-09T11:07:10.848Z,15.01
2022-11-09T11:12:14.027Z,15.07
2022-11-09T11:17:17.157Z,15.31
2022-11-09T11:22:23.301Z,15.60
2022-11-09T11:27:26.444Z,15.94
2022-11-09T11:32:29.666Z,16.37
2022-11-09T11:37:35.265Z,16.36
2022-11-09T11:42:38.434Z,16.47
2022-11-09T11:47:41.637Z,16.52
2022-11-09T11:52:45.136Z,16.73
2022-11-09T11:57:51.176Z,16.56
2022-11-09T12:02:54.532Z,16.51
2022-11-09T12:07:58.629Z,16.73
2022-11-09T12:13:01.817Z,16.89
2022-11-09T12:18:04.968Z,17.14
2022-11-09T12:23:08.276Z,17.32
2022-11-09T12:28:11.373Z,17.38
2022-11-09T12:33:14.675Z,17.36
2022-11-09T12:38:17.947Z,17.36
2022-11-09T12:43:21.593Z,16.85
2022-11-09T12:48:24.973Z,16.73
2022-11-09T12:53:28.184Z,16.55
2022-11-09T12:58:31.822Z,16.43
2022-11-09T13:03:35.195Z,16.61
2022-11-09T13:08:38.306Z,16.73
2022-11-09T13:13:41.517Z,16.65
2022-11-09T13:18:45.692Z,16.71
2022-11-09T13:24:07.086Z,16.72
2022-11-09T13:29:12.398Z,16.77
2022-11-09T13:34:15.780Z,16.65
2022-11-09T13:39:19.091Z,16.44
2022-11-09T13:44:22.270Z,16.02
2022-11-09T13:49:25.658Z,16.19
2022-11-09T13:54:28.989Z,16.24
2022-11-09T13:59:32.187Z,16.17
2022-11-09T14:04:35.409Z,15.98
2022-11-09T14:09:43.052Z,16.11
2022-11-09T14:14:46.388Z,15.87
2022-11-09T14:19:49.624Z,15.79
2022-11-09T14:24:53.293Z,15.88
2022-11-09T14:29:56.799Z,15.63
2022-11-09T14:35:00.017Z,15.55
2022-11-09T14:40:03.635Z,15.31
2022-11-09T14:45:11.661Z,15.36
2022-11-09T14:50:14.780Z,15.28
2022-11-09T14:55:17.915Z,15.17
2022-11-09T15:00:21.027Z,15.02
2022-11-09T15:05:27.458Z,14.89
2022-11-09T15:10:32.592Z,14.60
2022-11-09T15:15:38.518Z,14.51
2022-11-09T15:20:41.843Z,14.42
2022-11-09T15:25:45.865Z,14.10
2022-11-09T15:30:49.830Z,13.90
2022-11-09T15:35:52.949Z,13.61
2022-11-09T15:40:56.475Z,13.51
2022-11-09T15:45:59.674Z,13.52
2022-11-09T15:51:02.814Z,13.36
2022-11-09T15:56:06.005Z,13.37
2022-11-09T16:01:09.953Z,13.24
2022-11-09T16:06:13.682Z,13.18
2022-11-09T16:11:17.394Z,13.11
2022-11-09T16:16:21.738Z,13.12
2022-11-09T16:21:24.820Z,13.06
2022-11-09T16:26:28.028Z,13.05
2022-11-09T16:31:50.408Z,13.01
2022-11-09T16:36:56.975Z,13.04
2022-11-09T16:42:01.305Z,12.80
2022-11-09T16:47:11.711Z,13.03
2022-11-09T16:52:16.315Z,12.93
2022-11-09T16:57:19.738Z,12.98
2022-11-09T17:02:22.910Z,12.99
2022-11-09T17:07:26.765Z,13.12
2022-11-09T17:12:30.060Z,13.05
2022-11-09T17:17:33.524Z,13.11
2022-11-09T17:22:39.275Z,13.05
2022-11-09T17:27:46.967Z,12.95
2022-11-09T17:32:50.164Z,12.71
2022-11-09T17:37:53.492Z,12.54
2022-11-09T17:42:57.443Z,12.27
2022-11-09T17:48:01.807Z,11.96
2022-11-09T17:53:04.902Z,11.79
2022-11-09T17:58:08.106Z,11.53
2022-11-09T18:03:11.214Z,11.45
2022-11-09T18:08:14.470Z,11.32
2022-11-09T18:13:18.178Z,11.16
2022-11-09T18:18:21.638Z,11.15
2022-11-09T18:23:25.202Z,11.03
2022-11-09T18:28:29.707Z,11.01
2022-11-09T18:33:33.432Z,10.79
2022-11-09T18:38:37.299Z,10.77
2022-11-09T18:43:40.426Z,10.74
2022-11-09T18:48:43.559Z,10.78
2022-11-09T18:53:50.499Z,10.76
2022-11-09T18:58:53.741Z,10.78
2022-11-09T19:03:59.811Z,10.80
2022-11-09T19:09:25.979Z,10.77
2022-11-09T19:14:29.348Z,10.75
2022-11-09T19:19:32.513Z,10.77
2022-11-09T19:24:35.671Z,10.70
2022-11-09T19:29:39.659Z,10.64
2022-11-09T19:34:43.577Z,10.61
2022-11-09T19:39:47.656Z,10.52
2022-11-09T19:44:56.066Z,10.54
2022-11-09T19:50:00.525Z,10.52
2022-11-09T19:55:06.393Z,10.52
2022-11-09T20:00:09.669Z,10.44
2022-11-09T20:05:13.348Z,10.39
2022-11-09T20:10:17.615Z,10.37
2022-11-09T20:15:20.693Z,10.36
2022-11-09T20:20:23.889Z,10.35
2022-11-09T20:25:27.041Z,10.41
2022-11-09T20:30:30.172Z,10.37
2022-11-09T20:35:33.973Z,10.26
2022-11-09T20:40:37.100Z,10.26
2022-11-09T20:45:40.231Z,10.28
2022-11-09T20:50:43.431Z,10.33
2022-11-09T20:55:46.564Z,10.24
2022-11-09T21:00:54.232Z,10.31
2022-11-09T21:05:59.124Z,10.34
2022-11-09T21:11:02.830Z,10.25
2022-11-09T21:16:06.806Z,10.28
2022-11-09T21:21:10.097Z,10.25
2022-11-09T21:26:31.094Z,10.24
2022-11-09T21:31:34.396Z,10.21
2022-11-09T21:36:38.916Z,10.21
2022-11-09T21:41:42.003Z,10.24
2022-11-09T21:46:45.335Z,10.24
2022-11-09T21:51:48.419Z,10.15
2022-11-09T21:56:51.575Z,10.18
2022-11-09T22:01:54.737Z,10.17
2022-11-09T22:06:58.099Z,10.20
2022-11-09T22:12:19.413Z,10.23
2022-11-09T22:17:22.521Z,10.17
2022-11-09T22:22:25.673Z,10.10
2022-11-09T22:27:28.800Z,10.08
2022-11-09T22:32:32.027Z,10.01
2022-11-09T22:37:35.113Z,10.00
2022-11-09T22:42:38.219Z,10.00
2022-11-09T22:47:41.711Z,9.93
2022-11-09T22:52:44.789Z,9.96
2022-11-09T22:57:47.883Z,9.95
2022-11-09T23:02:51.097Z,9.85
2022-11-09T23:07:54.736Z,9.90
2022-11-09T23:12:57.908Z,9.88
2022-11-09T23:18:18.804Z,9.81
2022-11-09T23:23:22.225Z,9.81
2022-11-09T23:28:31.097Z,9.81
2022-11-09T23:33:34.228Z,9.86
2022-11-09T23:38:37.520Z,9.83
2022-11-09T23:43:42.978Z,9.84
2022-11-09T23:48:49.678Z,9.83
2022-11-09T23:53:53.034Z,9.79
2022-11-09T23:58:56.137Z,9.86
